createdAt,value
2018-03-08T00:00:40.540Z,991.67
2018-03-08T00:01:21.139Z,991.61
2018-03-08T00:02:02.461Z,991.67
2018-03-08T00:02:43.517Z,991.7
2018-03-08T00:03:23.551Z,991.68
2018-03-08T00:04:04.024Z,991.67
2018-03-08T00:04:44.990Z,991.59
2018-03-08T00:05:25.565Z,991.64
2018-03-08T00:06:06.665Z,991.61
2018-03-08T00:06:47.083Z,991.58
2018-03-08T00:07:28.099Z,991.63
2018-03-08T00:08:08.441Z,991.62
2018-03-08T00:08:49.848Z,991.64
2018-03-08T00:09:31.096Z,991.68
2018-03-08T00:10:12.077Z,991.69
2018-03-08T00:10:52.736Z,991.67
2018-03-08T00:11:33.903Z,991.63
2018-03-08T00:12:14.401Z,991.65
2018-03-08T00:12:54.918Z,991.68
2018-03-08T00:13:36.204Z,991.7
2018-03-08T00:14:16.755Z,991.65
2018-03-08T00:14:58.278Z,991.63
2018-03-08T00:15:39.957Z,991.71
2018-03-08T00:16:20.913Z,991.7
2018-03-08T00:17:02.078Z,991.71
2018-03-08T00:17:42.755Z,991.73
2018-03-08T00:18:23.542Z,991.72
2018-03-08T00:19:03.679Z,991.73
2018-03-08T00:19:45.233Z,991.71
2018-03-08T00:20:24.782Z,991.72
2018-03-08T00:22:39.288Z,991.77
2018-03-08T00:23:19.897Z,991.78
2018-03-08T00:24:00.842Z,991.82
2018-03-08T00:24:41.843Z,991.65
2018-03-08T00:25:22.264Z,991.74
2018-03-08T00:26:03.056Z,991.83
2018-03-08T00:26:43.703Z,991.85
2018-03-08T00:27:26.094Z,991.85
2018-03-08T00:28:05.908Z,991.73
2018-03-08T00:28:46.959Z,991.89
2018-03-08T00:29:27.450Z,991.89
2018-03-08T00:30:09.549Z,991.89
2018-03-08T00:30:50.070Z,991.88
2018-03-08T00:31:30.449Z,991.89
2018-03-08T00:32:13.082Z,991.92
2018-03-08T00:32:53.726Z,991.86
2018-03-08T00:33:36.769Z,991.88
2018-03-08T00:34:18.156Z,991.9
2018-03-08T00:34:58.756Z,991.89
2018-03-08T00:35:39.204Z,991.98
2018-03-08T00:36:21.000Z,991.99
2018-03-08T00:37:01.819Z,991.97
2018-03-08T00:37:42.286Z,991.99
2018-03-08T00:38:22.738Z,992
2018-03-08T00:39:03.229Z,991.96
2018-03-08T00:39:45.495Z,992.02
2018-03-08T00:40:26.653Z,992.09
2018-03-08T00:41:08.482Z,992
2018-03-08T00:41:48.759Z,992.03
2018-03-08T00:42:30.692Z,992.09
2018-03-08T00:43:12.111Z,992.05
2018-03-08T00:43:52.692Z,992.14
2018-03-08T00:44:33.267Z,992.02
2018-03-08T00:45:14.841Z,992.09
2018-03-08T00:45:54.963Z,992.09
2018-03-08T00:46:35.308Z,992.12
2018-03-08T00:47:15.894Z,992.1
2018-03-08T00:47:56.238Z,992.13
2018-03-08T00:48:37.273Z,992.11
2018-03-08T00:49:20.598Z,992.15
2018-03-08T00:50:02.498Z,992.11
2018-03-08T00:50:43.263Z,992.15
2018-03-08T00:51:23.738Z,992.09
2018-03-08T00:52:05.308Z,992.13
2018-03-08T00:52:46.970Z,992.1
2018-03-08T00:55:16.533Z,992.07
2018-03-08T00:55:56.920Z,992.14
2018-03-08T00:56:37.855Z,992.13
2018-03-08T00:57:18.623Z,992.2
2018-03-08T00:57:59.557Z,992.18
2018-03-08T00:58:39.803Z,992.07
2018-03-08T00:59:22.810Z,992.15
2018-03-08T01:00:03.311Z,992.27
2018-03-08T01:00:43.969Z,992.21
2018-03-08T01:01:24.438Z,992.17
2018-03-08T01:02:04.863Z,992.06
2018-03-08T01:02:45.529Z,992.18
2018-03-08T01:03:27.787Z,992.08
2018-03-08T01:04:08.905Z,992.24
2018-03-08T01:04:49.585Z,992.19
2018-03-08T01:05:31.482Z,992.2
2018-03-08T01:06:14.575Z,992.18
2018-03-08T01:06:55.066Z,992.24
2018-03-08T01:07:36.484Z,992.23
2018-03-08T01:08:17.473Z,992.25
2018-03-08T01:08:58.451Z,992.23
2018-03-08T01:09:38.887Z,992.26
2018-03-08T01:10:19.350Z,992.22
2018-03-08T01:10:59.814Z,992.25
2018-03-08T01:11:40.710Z,992.23
2018-03-08T01:12:22.634Z,992.26
2018-03-08T01:13:04.231Z,992.23
2018-03-08T01:13:47.498Z,992.19
2018-03-08T01:14:27.845Z,992.28
2018-03-08T01:15:09.361Z,992.26
2018-03-08T01:15:50.522Z,992.28
2018-03-08T01:16:31.289Z,992.27
2018-03-08T01:17:11.780Z,992.25
2018-03-08T01:17:52.911Z,992.29
2018-03-08T01:18:34.299Z,992.17
2018-03-08T01:19:15.678Z,992.28
2018-03-08T01:19:57.550Z,992.27
2018-03-08T01:20:38.095Z,992.25
2018-03-08T01:21:18.544Z,992.3
2018-03-08T01:21:59.439Z,992.33
2018-03-08T01:22:40.324Z,992.27
2018-03-08T01:23:20.496Z,992.25
2018-03-08T01:24:03.258Z,992.3
2018-03-08T01:24:44.930Z,992.31
2018-03-08T01:25:25.860Z,992.31
2018-03-08T01:26:07.137Z,992.36
2018-03-08T01:26:47.659Z,992.28
2018-03-08T01:27:28.704Z,992.27
2018-03-08T01:28:09.519Z,992.26
2018-03-08T01:28:50.804Z,992.19
2018-03-08T01:29:31.323Z,992.28
2018-03-08T01:30:15.449Z,992.32
2018-03-08T01:30:57.552Z,992.32
2018-03-08T01:31:38.702Z,992.33
2018-03-08T01:33:34.345Z,992.33
2018-03-08T01:34:17.186Z,992.34
2018-03-08T01:34:58.782Z,992.29
2018-03-08T01:35:42.015Z,992.32
2018-03-08T01:36:26.046Z,992.34
2018-03-08T01:37:07.152Z,992.36
2018-03-08T01:37:48.161Z,992.34
2018-03-08T01:38:29.674Z,992.31
2018-03-08T01:39:12.458Z,992.35
2018-03-08T01:39:54.521Z,992.36
2018-03-08T01:40:34.563Z,992.34
2018-03-08T01:41:17.413Z,992.35
2018-03-08T01:42:01.351Z,992.41
2018-03-08T01:42:44.246Z,992.37
2018-03-08T01:43:23.986Z,992.35
2018-03-08T01:44:06.137Z,992.28
2018-03-08T01:44:46.803Z,992.37
2018-03-08T01:45:27.265Z,992.34
2018-03-08T01:46:16.033Z,992.35
2018-03-08T01:46:55.418Z,992.35
2018-03-08T01:47:36.396Z,992.32
2018-03-08T01:48:16.903Z,992.38
2018-03-08T01:48:58.815Z,992.34
2018-03-08T01:49:41.087Z,992.33
2018-03-08T01:50:22.346Z,992.33
2018-03-08T01:51:06.982Z,992.39
2018-03-08T01:51:46.672Z,992.37
2018-03-08T01:52:27.301Z,992.35
2018-03-08T01:53:11.407Z,992.35
2018-03-08T01:53:52.500Z,992.41
2018-03-08T01:54:33.158Z,992.38
2018-03-08T01:55:14.438Z,992.35
2018-03-08T01:55:56.216Z,992.35
2018-03-08T01:56:37.879Z,992.35
2018-03-08T01:57:21.901Z,992.38
2018-03-08T01:58:02.572Z,992.35
2018-03-08T01:58:43.004Z,992.35
2018-03-08T01:59:23.446Z,992.38
2018-03-08T02:00:03.947Z,992.33
2018-03-08T02:00:44.797Z,992.38
2018-03-08T02:01:25.365Z,992.37
2018-03-08T02:02:06.538Z,992.4
2018-03-08T02:02:47.091Z,992.41
2018-03-08T02:03:30.267Z,992.37
2018-03-08T02:04:10.731Z,992.42
2018-03-08T02:04:52.014Z,992.43
2018-03-08T02:05:34.695Z,992.42
2018-03-08T02:06:16.815Z,992.43
2018-03-08T02:06:59.141Z,992.44
2018-03-08T02:07:40.549Z,992.38
2018-03-08T02:08:20.912Z,992.36
2018-03-08T02:09:02.709Z,992.41
2018-03-08T02:09:44.345Z,992.36
2018-03-08T02:10:26.173Z,992.4
2018-03-08T02:11:06.773Z,992.4
2018-03-08T02:11:47.011Z,992.37
2018-03-08T02:12:27.561Z,992.4
2018-03-08T02:13:08.896Z,992.36
2018-03-08T02:13:50.381Z,992.38
2018-03-08T02:14:31.829Z,992.39
2018-03-08T02:15:11.773Z,992.39
2018-03-08T02:15:52.184Z,992.39
2018-03-08T02:19:10.870Z,992.38
2018-03-08T02:19:51.431Z,992.44
2018-03-08T02:20:31.625Z,992.41
2018-03-08T02:21:12.092Z,992.41
2018-03-08T02:21:52.446Z,992.43
2018-03-08T02:22:32.816Z,992.44
2018-03-08T02:23:13.206Z,992.44
2018-03-08T02:23:53.619Z,992.41
2018-03-08T02:24:33.971Z,992.4
2018-03-08T02:25:14.330Z,992.4
2018-03-08T02:25:54.792Z,992.39
2018-03-08T02:26:35.208Z,992.41
2018-03-08T02:27:15.520Z,992.41
2018-03-08T02:27:55.954Z,992.38
2018-03-08T02:28:36.394Z,992.4
2018-03-08T02:29:16.791Z,992.4
2018-03-08T02:29:57.154Z,992.4
2018-03-08T02:30:37.610Z,992.43
2018-03-08T02:31:17.940Z,992.45
2018-03-08T02:31:58.412Z,992.39
2018-03-08T02:32:38.768Z,992.42
2018-03-08T02:33:19.250Z,992.38
2018-03-08T02:33:59.666Z,992.41
2018-03-08T02:34:40.016Z,992.39
2018-03-08T02:35:20.442Z,992.38
2018-03-08T02:36:00.879Z,992.4
2018-03-08T02:36:41.264Z,992.37
2018-03-08T02:37:21.657Z,992.4
2018-03-08T02:38:02.024Z,992.38
2018-03-08T02:38:42.398Z,992.34
2018-03-08T02:39:22.818Z,992.35
2018-03-08T02:40:03.244Z,992.38
2018-03-08T02:40:43.626Z,992.36
2018-03-08T02:41:24.023Z,992.4
2018-03-08T02:42:04.516Z,992.39
2018-03-08T02:42:44.869Z,992.35
2018-03-08T02:43:25.215Z,992.38
2018-03-08T02:44:05.608Z,992.37
2018-03-08T02:44:46.033Z,992.36
2018-03-08T02:45:26.397Z,992.35
2018-03-08T02:46:06.841Z,992.41
2018-03-08T02:46:47.291Z,992.37
2018-03-08T02:47:27.663Z,992.42
2018-03-08T02:48:08.070Z,992.43
2018-03-08T02:48:48.427Z,992.41
2018-03-08T02:49:28.857Z,992.46
2018-03-08T02:50:09.212Z,992.42
2018-03-08T02:50:49.683Z,992.46
2018-03-08T02:51:30.037Z,992.43
2018-03-08T02:52:10.456Z,992.42
2018-03-08T02:52:50.831Z,992.43
2018-03-08T02:53:31.200Z,992.41
2018-03-08T02:54:11.655Z,992.5
2018-03-08T02:54:52.073Z,992.44
2018-03-08T02:55:32.431Z,992.44
2018-03-08T02:56:12.839Z,992.45
2018-03-08T02:56:53.252Z,992.46
2018-03-08T02:57:33.595Z,992.46
2018-03-08T02:58:14.015Z,992.47
2018-03-08T02:58:54.449Z,992.53
2018-03-08T02:59:34.838Z,992.45
2018-03-08T03:00:15.214Z,992.48
2018-03-08T03:00:55.590Z,992.45
2018-03-08T03:01:35.993Z,992.44
2018-03-08T03:02:16.437Z,992.42
2018-03-08T03:02:56.800Z,992.42
2018-03-08T03:03:37.246Z,992.41
2018-03-08T03:04:17.611Z,992.47
2018-03-08T03:04:58.013Z,992.44
2018-03-08T03:05:38.376Z,992.42
2018-03-08T03:06:18.789Z,992.42
2018-03-08T03:06:59.184Z,992.43
2018-03-08T03:07:39.575Z,992.41
2018-03-08T03:08:19.946Z,992.38
2018-03-08T03:09:00.330Z,992.42
2018-03-08T03:09:40.675Z,992.45
2018-03-08T03:10:21.093Z,992.46
2018-03-08T03:11:01.426Z,992.43
2018-03-08T03:11:41.851Z,992.44
2018-03-08T03:12:22.286Z,992.43
2018-03-08T03:13:02.678Z,992.44
2018-03-08T03:13:43.022Z,992.44
2018-03-08T03:14:23.431Z,992.43
2018-03-08T03:15:03.854Z,992.44
2018-03-08T03:15:44.182Z,992.43
2018-03-08T03:16:24.544Z,992.44
2018-03-08T03:17:04.966Z,992.44
2018-03-08T03:17:45.406Z,992.45
2018-03-08T03:18:25.750Z,992.46
2018-03-08T03:19:06.195Z,992.47
2018-03-08T03:19:46.593Z,992.45
2018-03-08T03:20:26.988Z,992.45
2018-03-08T03:21:07.477Z,992.4
2018-03-08T03:21:47.829Z,992.4
2018-03-08T03:22:28.221Z,992.42
2018-03-08T03:23:08.619Z,992.43
2018-03-08T03:23:49.015Z,992.43
2018-03-08T03:24:29.399Z,992.42
2018-03-08T03:25:09.812Z,992.43
2018-03-08T03:25:50.269Z,992.42
2018-03-08T03:26:30.667Z,992.47
2018-03-08T03:27:11.037Z,992.44
2018-03-08T03:27:51.413Z,992.45
2018-03-08T03:28:31.884Z,992.43
2018-03-08T03:29:12.250Z,992.44
2018-03-08T03:29:52.645Z,992.42
2018-03-08T03:30:33.069Z,992.42
2018-03-08T03:31:13.408Z,992.41
2018-03-08T03:31:53.814Z,992.45
2018-03-08T03:32:34.198Z,992.41
2018-03-08T03:33:14.612Z,992.44
2018-03-08T03:33:54.975Z,992.42
2018-03-08T03:34:35.468Z,992.42
2018-03-08T03:35:15.792Z,992.43
2018-03-08T03:35:56.170Z,992.42
2018-03-08T03:36:36.597Z,992.43
2018-03-08T03:37:16.978Z,992.42
2018-03-08T03:37:57.398Z,992.45
2018-03-08T03:38:37.752Z,992.4
2018-03-08T03:39:18.204Z,992.43
2018-03-08T03:39:58.497Z,992.45
2018-03-08T03:40:38.970Z,992.4
2018-03-08T03:41:19.342Z,992.43
2018-03-08T03:41:59.770Z,992.42
2018-03-08T03:42:40.128Z,992.4
2018-03-08T03:43:21.037Z,992.4
2018-03-08T03:44:01.046Z,992.36
2018-03-08T03:44:41.410Z,992.41
2018-03-08T03:45:21.871Z,992.37
2018-03-08T03:46:02.182Z,992.41
2018-03-08T03:46:42.683Z,992.4
2018-03-08T03:47:23.114Z,992.38
2018-03-08T03:48:03.494Z,992.37
2018-03-08T03:48:43.978Z,992.36
2018-03-08T03:49:24.320Z,992.36
2018-03-08T03:50:04.728Z,992.37
2018-03-08T03:50:45.075Z,992.4
2018-03-08T03:51:25.448Z,992.33
2018-03-08T03:52:05.868Z,992.32
2018-03-08T03:52:46.337Z,992.34
2018-03-08T03:53:26.734Z,992.36
2018-03-08T03:54:07.130Z,992.35
2018-03-08T03:54:47.433Z,992.36
2018-03-08T03:55:27.850Z,992.36
2018-03-08T03:56:08.238Z,992.34
2018-03-08T03:56:48.637Z,992.28
2018-03-08T03:57:29.228Z,992.27
2018-03-08T03:58:09.647Z,992.32
2018-03-08T03:58:50.048Z,992.29
2018-03-08T03:59:30.426Z,992.32
2018-03-08T04:00:10.808Z,992.32
2018-03-08T04:00:51.261Z,992.31
2018-03-08T04:01:31.607Z,992.3
2018-03-08T04:02:12.060Z,992.34
2018-03-08T04:02:52.559Z,992.3
2018-03-08T04:03:32.918Z,992.3
2018-03-08T04:04:13.250Z,992.25
2018-03-08T04:04:53.773Z,992.31
2018-03-08T04:05:34.166Z,992.3
2018-03-08T04:06:14.751Z,992.3
2018-03-08T04:06:55.198Z,992.35
2018-03-08T04:07:35.645Z,992.31
2018-03-08T04:08:15.955Z,992.31
2018-03-08T04:08:56.395Z,992.36
2018-03-08T04:47:01.077Z,992.34
2018-03-08T04:47:43.636Z,992.44
2018-03-08T04:48:24.113Z,992.41
2018-03-08T04:49:04.832Z,992.4
2018-03-08T04:51:18.907Z,992.41
2018-03-08T04:51:59.261Z,992.43
2018-03-08T04:52:39.608Z,992.43
2018-03-08T04:53:20.098Z,992.44
2018-03-08T04:54:00.441Z,992.39
2018-03-08T04:54:40.828Z,992.44
2018-03-08T04:55:21.248Z,992.42
2018-03-08T04:56:01.694Z,992.47
2018-03-08T04:56:42.018Z,992.45
2018-03-08T04:57:22.444Z,992.45
2018-03-08T04:58:02.754Z,992.53
2018-03-08T04:58:43.187Z,992.53
2018-03-08T04:59:23.524Z,992.51
2018-03-08T05:00:03.976Z,992.51
2018-03-08T05:00:44.380Z,992.48
2018-03-08T05:01:24.817Z,992.46
2018-03-08T05:02:05.248Z,992.48
2018-03-08T05:02:45.584Z,992.47
2018-03-08T05:03:26.019Z,992.46
2018-03-08T05:04:06.494Z,992.52
2018-03-08T05:04:46.800Z,992.56
2018-03-08T05:05:27.214Z,992.48
2018-03-08T05:06:07.688Z,992.52
2018-03-08T05:06:48.031Z,992.52
2018-03-08T05:07:28.411Z,992.52
2018-03-08T05:08:08.804Z,992.57
2018-03-08T05:08:49.217Z,992.52
2018-03-08T05:09:30.108Z,992.51
2018-03-08T05:10:10.426Z,992.51
2018-03-08T05:10:50.990Z,992.48
2018-03-08T05:11:31.341Z,992.56
2018-03-08T05:12:11.766Z,992.51
2018-03-08T05:12:52.160Z,992.47
2018-03-08T05:13:32.511Z,992.57
2018-03-08T05:14:12.948Z,992.54
2018-03-08T05:14:53.348Z,992.54
2018-03-08T05:15:33.814Z,992.58
2018-03-08T05:16:14.163Z,992.55
2018-03-08T05:16:54.582Z,992.54
2018-03-08T05:17:35.041Z,992.56
2018-03-08T05:18:15.398Z,992.61
2018-03-08T05:18:55.798Z,992.55
2018-03-08T05:19:36.193Z,992.58
2018-03-08T05:20:16.610Z,992.58
2018-03-08T05:20:57.122Z,992.6
2018-03-08T05:21:37.439Z,992.59
2018-03-08T05:22:17.831Z,992.57
2018-03-08T05:22:58.180Z,992.61
2018-03-08T05:23:38.664Z,992.58
2018-03-08T05:24:19.030Z,992.58
2018-03-08T05:24:59.548Z,992.53
2018-03-08T05:25:39.834Z,992.51
2018-03-08T05:26:20.280Z,992.53
2018-03-08T05:27:00.635Z,992.59
2018-03-08T05:27:41.119Z,992.55
2018-03-08T05:28:21.420Z,992.59
2018-03-08T05:29:01.825Z,992.57
2018-03-08T05:29:42.268Z,992.56
2018-03-08T05:30:22.667Z,992.55
2018-03-08T05:31:03.026Z,992.54
2018-03-08T05:31:43.432Z,992.57
2018-03-08T05:32:23.851Z,992.62
2018-03-08T05:33:04.215Z,992.58
2018-03-08T05:33:44.648Z,992.56
2018-03-08T05:34:25.016Z,992.56
2018-03-08T05:35:05.405Z,992.6
2018-03-08T05:35:45.823Z,992.57
2018-03-08T05:36:26.209Z,992.62
2018-03-08T05:37:06.531Z,992.65
2018-03-08T05:37:46.984Z,992.58
2018-03-08T05:38:27.451Z,992.6
2018-03-08T05:39:07.854Z,992.66
2018-03-08T05:39:48.282Z,992.64
2018-03-08T05:40:28.659Z,992.61
2018-03-08T05:41:09.030Z,992.64
2018-03-08T05:41:49.469Z,992.64
2018-03-08T05:42:29.865Z,992.65
2018-03-08T05:43:10.278Z,992.63
2018-03-08T05:43:50.684Z,992.61
2018-03-08T05:44:31.073Z,992.65
2018-03-08T05:45:12.022Z,992.63
2018-03-08T05:45:52.374Z,992.66
2018-03-08T05:46:32.746Z,992.65
2018-03-08T05:47:13.161Z,992.67
2018-03-08T05:47:53.517Z,992.68
2018-03-08T05:48:33.934Z,992.69
2018-03-08T05:49:14.382Z,992.69
2018-03-08T05:49:54.813Z,992.74
2018-03-08T05:50:35.209Z,992.71
2018-03-08T05:51:15.645Z,992.71
2018-03-08T05:51:56.016Z,992.76
2018-03-08T05:52:36.441Z,992.76
2018-03-08T05:53:16.834Z,992.74
2018-03-08T05:53:57.182Z,992.81
2018-03-08T05:54:37.628Z,992.8
2018-03-08T05:55:18.008Z,992.83
2018-03-08T05:55:58.588Z,992.8
2018-03-08T05:56:38.992Z,992.8
2018-03-08T05:57:19.352Z,992.81
2018-03-08T05:57:59.695Z,992.76
2018-03-08T05:58:40.150Z,992.82
2018-03-08T05:59:20.707Z,992.77
2018-03-08T06:00:01.133Z,992.81
2018-03-08T06:00:41.554Z,992.81
2018-03-08T06:01:21.918Z,992.8
2018-03-08T06:02:02.320Z,992.82
2018-03-08T06:02:42.731Z,992.79
2018-03-08T06:03:23.194Z,992.83
2018-03-08T06:04:03.654Z,992.86
2018-03-08T06:04:43.910Z,992.87
2018-03-08T06:05:24.373Z,992.87
2018-03-08T06:06:04.781Z,992.88
2018-03-08T06:06:45.240Z,992.94
2018-03-08T06:07:25.586Z,992.93
2018-03-08T06:08:06.303Z,992.96
2018-03-08T06:08:48.327Z,992.95
2018-03-08T06:09:28.780Z,992.9
2018-03-08T06:10:09.172Z,992.96
2018-03-08T06:10:49.615Z,992.9
2018-03-08T06:11:30.192Z,992.91
2018-03-08T06:12:10.617Z,992.9
2018-03-08T06:12:50.996Z,992.91
2018-03-08T06:13:31.481Z,992.89
2018-03-08T06:14:11.830Z,992.87
2018-03-08T06:14:52.330Z,992.84
2018-03-08T06:15:32.677Z,992.85
2018-03-08T06:16:13.073Z,992.83
2018-03-08T06:16:53.489Z,992.88
2018-03-08T06:17:33.835Z,992.89
2018-03-08T06:18:14.209Z,992.85
2018-03-08T06:18:54.603Z,992.82
2018-03-08T06:19:35.042Z,992.84
2018-03-08T06:20:15.408Z,992.84
2018-03-08T06:20:55.804Z,992.84
2018-03-08T06:21:36.292Z,992.86
2018-03-08T06:22:16.946Z,992.85
2018-03-08T06:22:57.333Z,992.88
2018-03-08T06:23:37.710Z,992.88
2018-03-08T06:24:18.151Z,992.9
2018-03-08T06:24:58.576Z,992.91
2018-03-08T06:25:39.080Z,992.91
2018-03-08T06:26:19.396Z,992.89
2018-03-08T06:26:59.837Z,992.86
2018-03-08T06:27:40.257Z,992.89
2018-03-08T06:28:20.573Z,992.95
2018-03-08T06:29:01.009Z,992.96
2018-03-08T06:29:41.506Z,992.96
2018-03-08T06:30:21.895Z,992.94
2018-03-08T06:31:02.450Z,992.92
2018-03-08T06:31:42.878Z,992.91
2018-03-08T06:32:23.173Z,992.93
2018-03-08T06:33:03.679Z,992.94
2018-03-08T06:33:44.082Z,992.97
2018-03-08T06:34:24.443Z,992.93
2018-03-08T06:35:04.839Z,992.95
2018-03-08T06:35:45.174Z,992.96
2018-03-08T06:36:25.702Z,992.95
2018-03-08T06:37:05.928Z,992.96
2018-03-08T06:37:46.400Z,992.94
2018-03-08T06:38:27.567Z,992.92
2018-03-08T06:40:59.296Z,992.88
2018-03-08T06:41:39.906Z,992.85
2018-03-08T06:42:21.301Z,992.87
2018-03-08T06:43:01.618Z,992.87
2018-03-08T06:43:42.179Z,992.86
2018-03-08T06:44:22.497Z,992.86
2018-03-08T06:45:02.939Z,992.89
2018-03-08T06:45:43.431Z,992.89
2018-03-08T06:46:23.745Z,992.87
2018-03-08T06:47:04.103Z,992.86
2018-03-08T06:47:44.708Z,992.9
2018-03-08T06:48:25.286Z,992.88
2018-03-08T06:49:05.640Z,992.87
2018-03-08T06:49:46.083Z,992.9
2018-03-08T06:50:26.458Z,992.9
2018-03-08T06:51:06.941Z,992.92
2018-03-08T06:51:47.687Z,992.94
2018-03-08T06:52:28.137Z,992.94
2018-03-08T06:53:08.576Z,992.91
2018-03-08T06:53:48.954Z,992.89
2018-03-08T06:54:29.429Z,992.93
2018-03-08T06:55:09.840Z,992.89
2018-03-08T06:55:50.270Z,992.92
2018-03-08T06:56:30.854Z,992.9
2018-03-08T06:57:11.200Z,992.89
2018-03-08T06:57:51.765Z,992.88
2018-03-08T06:58:32.112Z,992.9
2018-03-08T06:59:12.570Z,992.91
2018-03-08T06:59:53.073Z,992.88
2018-03-08T07:00:33.449Z,992.92
2018-03-08T07:01:13.926Z,992.93
2018-03-08T07:01:54.842Z,992.92
2018-03-08T07:02:35.404Z,992.93
2018-03-08T07:03:15.895Z,992.92
2018-03-08T07:03:56.271Z,992.94
2018-03-08T07:04:36.827Z,992.95
2018-03-08T07:05:17.377Z,992.93
2018-03-08T07:05:57.812Z,992.97
2018-03-08T07:06:38.483Z,993.03
2018-03-08T07:07:18.900Z,993.06
2018-03-08T07:07:59.277Z,993.08
2018-03-08T07:08:39.715Z,993.04
2018-03-08T07:09:20.240Z,993.06
2018-03-08T07:10:00.884Z,993.04
2018-03-08T07:10:41.312Z,993.03
2018-03-08T07:11:21.630Z,993.06
2018-03-08T07:12:02.022Z,993.07
2018-03-08T07:12:42.437Z,993.06
2018-03-08T07:13:22.910Z,993.07
2018-03-08T07:14:03.459Z,993.13
2018-03-08T07:14:43.918Z,993.12
2018-03-08T07:15:24.306Z,993.13
2018-03-08T07:16:05.758Z,993.2
2018-03-08T07:16:46.121Z,993.12
2018-03-08T07:17:26.842Z,993.12
2018-03-08T07:18:07.523Z,993.13
2018-03-08T07:18:47.931Z,993.15
2018-03-08T07:19:28.531Z,993.17
2018-03-08T07:20:08.934Z,993.13
2018-03-08T07:20:49.379Z,993.14
2018-03-08T07:21:29.737Z,993.18
2018-03-08T07:22:10.329Z,993.19
2018-03-08T07:22:50.742Z,993.18
2018-03-08T07:23:31.249Z,993.2
2018-03-08T07:24:11.574Z,993.19
2018-03-08T07:24:52.034Z,993.16
2018-03-08T07:25:32.375Z,993.14
2018-03-08T07:26:13.366Z,993.17
2018-03-08T07:26:53.733Z,993.11
2018-03-08T07:27:34.167Z,993.11
2018-03-08T07:28:14.970Z,993.14
2018-03-08T07:28:55.388Z,993.11
2018-03-08T07:29:40.799Z,993.12
2018-03-08T07:30:22.022Z,993.17
2018-03-08T07:31:02.519Z,993.14
2018-03-08T07:31:44.051Z,993.1
2018-03-08T07:32:24.242Z,993.11
2018-03-08T07:33:04.824Z,993.07
2018-03-08T07:33:45.407Z,993.05
2018-03-08T07:34:28.153Z,993.04
2018-03-08T07:35:08.583Z,993.08
2018-03-08T07:35:48.984Z,993.06
2018-03-08T07:36:29.728Z,993.05
2018-03-08T07:37:14.337Z,993.1
2018-03-08T07:37:54.704Z,993.02
2018-03-08T07:38:35.447Z,993.03
2018-03-08T07:39:15.821Z,993.02
2018-03-08T07:39:56.435Z,993.04
2018-03-08T07:40:37.045Z,993
2018-03-08T07:41:17.392Z,993.02
2018-03-08T07:41:57.814Z,993.04
2018-03-08T07:42:38.250Z,993.03
2018-03-08T07:43:18.704Z,993.01
2018-03-08T07:43:59.383Z,993
2018-03-08T07:44:40.211Z,993.01
2018-03-08T07:45:20.720Z,992.91
2018-03-08T07:46:01.653Z,992.94
2018-03-08T07:46:42.416Z,993.04
2018-03-08T07:47:22.940Z,992.96
2018-03-08T07:48:03.986Z,992.92
2018-03-08T07:49:26.761Z,992.92
2018-03-08T07:50:13.826Z,992.9
2018-03-08T07:50:54.242Z,992.98
2018-03-08T07:51:35.011Z,993
2018-03-08T07:52:16.217Z,992.93
2018-03-08T07:52:57.372Z,992.96
2018-03-08T07:54:53.771Z,992.92
2018-03-08T07:55:33.239Z,992.94
2018-03-08T07:56:15.325Z,992.88
2018-03-08T07:56:56.876Z,992.88
2018-03-08T07:57:37.857Z,992.88
2018-03-08T07:58:18.223Z,992.89
2018-03-08T07:58:58.847Z,992.87
2018-03-08T07:59:39.524Z,992.85
2018-03-08T08:00:21.929Z,992.88
2018-03-08T08:01:02.028Z,992.85
2018-03-08T08:01:42.527Z,992.85
2018-03-08T08:02:28.224Z,992.84
2018-03-08T08:03:12.274Z,992.81
2018-03-08T08:03:53.041Z,992.9
2018-03-08T08:04:34.322Z,992.89
2018-03-08T08:05:14.709Z,992.86
2018-03-08T08:05:55.113Z,992.87
2018-03-08T08:06:40.666Z,992.81
2018-03-08T08:07:20.993Z,992.82
2018-03-08T08:08:02.408Z,992.83
2018-03-08T08:08:43.034Z,992.74
2018-03-08T08:09:23.634Z,992.76
2018-03-08T08:10:07.629Z,992.68
2018-03-08T08:10:47.936Z,992.72
2018-03-08T08:11:29.830Z,992.69
2018-03-08T08:12:10.414Z,992.68
2018-03-08T08:12:50.958Z,992.68
2018-03-08T08:13:32.565Z,992.61
2018-03-08T08:14:13.619Z,992.75
2018-03-08T08:14:54.726Z,992.78
2018-03-08T08:15:35.230Z,992.74
2018-03-08T08:16:15.693Z,992.78
2018-03-08T08:16:56.175Z,992.71
2018-03-08T08:17:36.892Z,992.74
2018-03-08T08:18:17.526Z,992.77
2018-03-08T08:18:58.173Z,992.72
2018-03-08T08:19:38.832Z,992.7
2018-03-08T08:20:19.055Z,992.74
2018-03-08T08:21:00.440Z,992.8
2018-03-08T08:21:40.864Z,992.74
2018-03-08T08:22:21.344Z,992.8
2018-03-08T08:23:02.948Z,992.75
2018-03-08T08:23:43.229Z,992.77
2018-03-08T08:24:24.077Z,992.76
2018-03-08T08:25:09.202Z,992.79
2018-03-08T08:25:49.840Z,992.75
2018-03-08T08:26:30.191Z,992.75
2018-03-08T08:27:11.278Z,992.8
2018-03-08T08:27:53.260Z,992.83
2018-03-08T08:28:33.792Z,992.75
2018-03-08T08:29:14.075Z,992.78
2018-03-08T08:29:55.781Z,992.73
2018-03-08T08:30:38.764Z,992.71
2018-03-08T08:36:19.902Z,992.68
2018-03-08T08:37:21.990Z,992.7
2018-03-08T08:38:55.372Z,992.69
2018-03-08T08:39:35.100Z,992.66
2018-03-08T08:40:15.544Z,992.61
2018-03-08T08:40:56.647Z,992.66
2018-03-08T08:41:37.040Z,992.69
2018-03-08T08:42:17.826Z,992.69
2018-03-08T08:43:02.107Z,992.34
2018-03-08T08:43:43.300Z,992.69
2018-03-08T08:44:24.905Z,992.7
2018-03-08T08:45:06.396Z,992.7
2018-03-08T08:45:47.993Z,992.75
2018-03-08T08:46:29.469Z,992.72
2018-03-08T08:47:10.661Z,992.68
2018-03-08T08:47:51.419Z,992.65
2018-03-08T08:48:32.163Z,992.6
2018-03-08T08:49:12.750Z,992.7
2018-03-08T08:49:54.436Z,992.64
2018-03-08T08:50:33.582Z,992.64
2018-03-08T08:51:13.908Z,992.62
2018-03-08T08:51:54.415Z,992.65
2018-03-08T08:52:36.799Z,992.6
2018-03-08T08:53:17.211Z,992.58
2018-03-08T08:53:59.076Z,992.59
2018-03-08T08:54:40.166Z,992.66
2018-03-08T08:55:20.336Z,992.58
2018-03-08T08:56:01.489Z,992.57
2018-03-08T08:56:45.813Z,992.56
2018-03-08T08:57:26.440Z,992.56
2018-03-08T08:58:06.708Z,992.67
2018-03-08T08:58:47.172Z,992.59
2018-03-08T08:59:27.629Z,992.62
2018-03-08T09:00:08.075Z,992.56
2018-03-08T09:00:49.097Z,992.56
2018-03-08T09:01:29.238Z,992.67
2018-03-08T09:02:13.257Z,992.57
2018-03-08T09:02:53.997Z,992.57
2018-03-08T09:03:34.501Z,992.58
2018-03-08T09:04:15.197Z,992.59
2018-03-08T09:04:57.852Z,992.57
2018-03-08T09:05:38.331Z,992.56
2018-03-08T09:06:19.418Z,992.52
2018-03-08T09:07:18.522Z,992.47
2018-03-08T09:07:59.160Z,992.44
2018-03-08T09:08:39.899Z,992.51
2018-03-08T09:09:20.352Z,992.44
2018-03-08T09:10:00.848Z,992.5
2018-03-08T09:10:41.373Z,992.56
2018-03-08T09:11:24.260Z,992.51
2018-03-08T09:12:04.708Z,992.43
2018-03-08T09:12:45.352Z,992.44
2018-03-08T09:13:25.917Z,992.42
2018-03-08T09:14:08.573Z,992.39
2018-03-08T09:14:58.418Z,992.42
2018-03-08T09:15:38.752Z,992.36
2018-03-08T09:16:43.248Z,992.47
2018-03-08T09:17:25.533Z,992.44
2018-03-08T09:18:06.504Z,992.43
2018-03-08T09:18:46.893Z,992.41
2018-03-08T09:19:29.003Z,992.44
2018-03-08T09:20:10.437Z,992.45
2018-03-08T09:20:52.137Z,992.49
2018-03-08T09:21:36.006Z,992.43
2018-03-08T09:22:16.650Z,992.51
2018-03-08T09:22:57.673Z,992.42
2018-03-08T09:23:38.545Z,992.36
2018-03-08T09:24:20.384Z,992.32
2018-03-08T09:25:01.388Z,992.4
2018-03-08T09:25:42.043Z,992.3
2018-03-08T09:26:22.507Z,992.32
2018-03-08T09:27:04.180Z,992.3
2018-03-08T09:27:46.212Z,992.28
2018-03-08T09:28:26.655Z,992.35